sensor_id;sensor_type;location;lat;lon;timestamp;temperature;humidity
8965;DHT22;4517;49.020;12.066;2022-08-11T00:00:41;16.90;56.90
8965;DHT22;4517;49.020;12.066;2022-08-11T00:03:10;16.90;57.20
8965;DHT22;4517;49.020;12.066;2022-08-11T00:05:51;16.90;57.20
8965;DHT22;4517;49.020;12.066;2022-08-11T00:08:28;16.80;57.20
8965;DHT22;4517;49.020;12.066;2022-08-11T00:11:01;16.80;57.30
8965;DHT22;4517;49.020;12.066;2022-08-11T00:13:47;16.80;57.50
8965;DHT22;4517;49.020;12.066;2022-08-11T00:16:22;16.90;57.70
8965;DHT22;4517;49.020;12.066;2022-08-11T00:18:51;16.80;57.90
8965;DHT22;4517;49.020;12.066;2022-08-11T00:21:20;16.80;58.20
8965;DHT22;4517;49.020;12.066;2022-08-11T00:23:59;16.80;58.30
8965;DHT22;4517;49.020;12.066;2022-08-11T00:26:26;16.80;58.60
8965;DHT22;4517;49.020;12.066;2022-08-11T00:28:52;16.90;58.60
8965;DHT22;4517;49.020;12.066;2022-08-11T00:31:25;16.90;58.50
8965;DHT22;4517;49.020;12.066;2022-08-11T00:33:53;16.90;58.70
8965;DHT22;4517;49.020;12.066;2022-08-11T00:36:29;17.00;58.90
8965;DHT22;4517;49.020;12.066;2022-08-11T00:39:04;17.00;58.90
8965;DHT22;4517;49.020;12.066;2022-08-11T00:41:35;17.10;58.90
8965;DHT22;4517;49.020;12.066;2022-08-11T00:50:00;17.20;59.20
8965;DHT22;4517;49.020;12.066;2022-08-11T01:12:34;17.10;59.10
8965;DHT22;4517;49.020;12.066;2022-08-11T01:18:49;17.10;58.90
8965;DHT22;4517;49.020;12.066;2022-08-11T01:27:41;16.80;59.40
8965;DHT22;4517;49.020;12.066;2022-08-11T01:30:46;16.60;59.80
8965;DHT22;4517;49.020;12.066;2022-08-11T01:36:26;16.40;60.80
8965;DHT22;4517;49.020;12.066;2022-08-11T01:39:17;16.40;60.80
8965;DHT22;4517;49.020;12.066;2022-08-11T01:46:06;16.30;61.20
8965;DHT22;4517;49.020;12.066;2022-08-11T01:51:43;16.20;61.30
8965;DHT22;4517;49.020;12.066;2022-08-11T02:04:54;15.90;64.50
8965;DHT22;4517;49.020;12.066;2022-08-11T02:07:56;15.90;65.00
8965;DHT22;4517;49.020;12.066;2022-08-11T02:10:29;15.80;65.60
8965;DHT22;4517;49.020;12.066;2022-08-11T02:13:39;15.80;65.70
8965;DHT22;4517;49.020;12.066;2022-08-11T02:22:08;15.50;66.90
8965;DHT22;4517;49.020;12.066;2022-08-11T02:25:01;15.40;67.50
8965;DHT22;4517;49.020;12.066;2022-08-11T02:27:46;15.30;68.30
8965;DHT22;4517;49.020;12.066;2022-08-11T02:30:16;15.30;68.50
8965;DHT22;4517;49.020;12.066;2022-08-11T02:32:50;15.20;68.80
8965;DHT22;4517;49.020;12.066;2022-08-11T02:47:17;15.00;70.50
8965;DHT22;4517;49.020;12.066;2022-08-11T02:50:38;14.90;70.90
8965;DHT22;4517;49.020;12.066;2022-08-11T02:52:59;14.90;70.90
8965;DHT22;4517;49.020;12.066;2022-08-11T02:58:10;14.90;71.90
8965;DHT22;4517;49.020;12.066;2022-08-11T03:00:56;14.80;72.20
8965;DHT22;4517;49.020;12.066;2022-08-11T03:06:23;14.90;72.10
8965;DHT22;4517;49.020;12.066;2022-08-11T03:08:58;14.80;72.00
8965;DHT22;4517;49.020;12.066;2022-08-11T03:14:26;14.80;72.10
8965;DHT22;4517;49.020;12.066;2022-08-11T03:17:24;14.80;70.90
8965;DHT22;4517;49.020;12.066;2022-08-11T03:20:07;14.70;70.70
8965;DHT22;4517;49.020;12.066;2022-08-11T03:22:45;14.60;71.50
8965;DHT22;4517;49.020;12.066;2022-08-11T03:28:31;14.50;73.30
8965;DHT22;4517;49.020;12.066;2022-08-11T03:31:15;14.40;73.00
8965;DHT22;4517;49.020;12.066;2022-08-11T03:33:49;14.30;73.40
8965;DHT22;4517;49.020;12.066;2022-08-11T03:39:21;14.30;73.50
8965;DHT22;4517;49.020;12.066;2022-08-11T03:44:33;14.10;75.30
8965;DHT22;4517;49.020;12.066;2022-08-11T03:53:09;14.10;76.20
8965;DHT22;4517;49.020;12.066;2022-08-11T04:06:34;14.50;69.80
8965;DHT22;4517;49.020;12.066;2022-08-11T04:15:21;15.20;66.00
8965;DHT22;4517;49.020;12.066;2022-08-11T04:18:32;15.50;65.60
8965;DHT22;4517;49.020;12.066;2022-08-11T04:21:35;15.60;65.10
8965;DHT22;4517;49.020;12.066;2022-08-11T04:26:45;17.00;62.10
8965;DHT22;4517;49.020;12.066;2022-08-11T04:32:26;18.50;59.50
8965;DHT22;4517;49.020;12.066;2022-08-11T04:49:44;21.60;54.50
8965;DHT22;4517;49.020;12.066;2022-08-11T05:04:48;22.80;52.90
8965;DHT22;4517;49.020;12.066;2022-08-11T05:08:07;22.20;52.30
8965;DHT22;4517;49.020;12.066;2022-08-11T05:11:03;22.50;53.00
8965;DHT22;4517;49.020;12.066;2022-08-11T05:13:44;23.00;52.30
8965;DHT22;4517;49.020;12.066;2022-08-11T05:16:39;23.30;51.80
8965;DHT22;4517;49.020;12.066;2022-08-11T05:19:24;23.40;52.00
8965;DHT22;4517;49.020;12.066;2022-08-11T05:22:11;24.10;51.70
8965;DHT22;4517;49.020;12.066;2022-08-11T05:25:03;24.40;51.50
8965;DHT22;4517;49.020;12.066;2022-08-11T05:28:07;24.50;51.50
8965;DHT22;4517;49.020;12.066;2022-08-11T05:30:59;24.80;51.00
8965;DHT22;4517;49.020;12.066;2022-08-11T05:33:50;25.30;50.40
8965;DHT22;4517;49.020;12.066;2022-08-11T05:39:15;25.30;50.00
8965;DHT22;4517;49.020;12.066;2022-08-11T05:42:00;25.10;49.90
8965;DHT22;4517;49.020;12.066;2022-08-11T05:44:46;25.40;50.10
8965;DHT22;4517;49.020;12.066;2022-08-11T05:47:33;25.60;49.60
8965;DHT22;4517;49.020;12.066;2022-08-11T05:50:21;25.50;49.70
8965;DHT22;4517;49.020;12.066;2022-08-11T05:53:09;25.80;49.50
8965;DHT22;4517;49.020;12.066;2022-08-11T05:55:56;26.50;48.80
8965;DHT22;4517;49.020;12.066;2022-08-11T05:58:44;26.50;48.50
8965;DHT22;4517;49.020;12.066;2022-08-11T06:01:12;25.90;48.80
8965;DHT22;4517;49.020;12.066;2022-08-11T06:03:42;25.70;49.20
8965;DHT22;4517;49.020;12.066;2022-08-11T06:06:28;25.80;49.20
8965;DHT22;4517;49.020;12.066;2022-08-11T06:08:56;25.90;49.10
8965;DHT22;4517;49.020;12.066;2022-08-11T06:11:22;25.40;49.10
8965;DHT22;4517;49.020;12.066;2022-08-11T06:13:49;25.60;49.30
8965;DHT22;4517;49.020;12.066;2022-08-11T06:16:22;24.80;49.40
8965;DHT22;4517;49.020;12.066;2022-08-11T06:18:49;24.20;50.10
8965;DHT22;4517;49.020;12.066;2022-08-11T06:21:15;23.90;50.70
8965;DHT22;4517;49.020;12.066;2022-08-11T06:23:42;24.30;50.20
8965;DHT22;4517;49.020;12.066;2022-08-11T06:26:10;23.90;50.10
8965;DHT22;4517;49.020;12.066;2022-08-11T06:28:38;23.90;50.70
8965;DHT22;4517;49.020;12.066;2022-08-11T06:31:21;24.10;50.40
8965;DHT22;4517;49.020;12.066;2022-08-11T06:34:04;23.70;50.60
8965;DHT22;4517;49.020;12.066;2022-08-11T06:36:56;23.50;50.80
8965;DHT22;4517;49.020;12.066;2022-08-11T06:39:32;23.00;50.70
8965;DHT22;4517;49.020;12.066;2022-08-11T06:42:10;22.10;51.50
8965;DHT22;4517;49.020;12.066;2022-08-11T06:44:43;21.80;52.30
8965;DHT22;4517;49.020;12.066;2022-08-11T06:47:14;21.60;52.10
8965;DHT22;4517;49.020;12.066;2022-08-11T06:49:44;21.40;52.30
8965;DHT22;4517;49.020;12.066;2022-08-11T06:52:36;21.20;52.40
8965;DHT22;4517;49.020;12.066;2022-08-11T06:55:26;21.20;52.30
8965;DHT22;4517;49.020;12.066;2022-08-11T06:58:17;21.10;52.60
8965;DHT22;4517;49.020;12.066;2022-08-11T07:01:13;21.10;52.60
8965;DHT22;4517;49.020;12.066;2022-08-11T07:03:47;21.10;52.80
8965;DHT22;4517;49.020;12.066;2022-08-11T07:06:36;21.10;52.70
8965;DHT22;4517;49.020;12.066;2022-08-11T07:12:36;21.20;52.30
8965;DHT22;4517;49.020;12.066;2022-08-11T07:15:23;21.30;52.70
8965;DHT22;4517;49.020;12.066;2022-08-11T07:18:24;21.30;52.30
8965;DHT22;4517;49.020;12.066;2022-08-11T07:21:31;21.40;52.20
8965;DHT22;4517;49.020;12.066;2022-08-11T07:24:25;21.50;52.40
8965;DHT22;4517;49.020;12.066;2022-08-11T07:27:14;21.50;52.60
8965;DHT22;4517;49.020;12.066;2022-08-11T07:30:03;21.60;51.90
8965;DHT22;4517;49.020;12.066;2022-08-11T07:32:32;21.50;52.10
8965;DHT22;4517;49.020;12.066;2022-08-11T07:35:11;21.70;52.50
8965;DHT22;4517;49.020;12.066;2022-08-11T07:37:41;21.80;51.50
8965;DHT22;4517;49.020;12.066;2022-08-11T07:40:08;21.80;51.10
8965;DHT22;4517;49.020;12.066;2022-08-11T07:42:36;21.90;51.40
8965;DHT22;4517;49.020;12.066;2022-08-11T07:45:04;22.00;51.20
8965;DHT22;4517;49.020;12.066;2022-08-11T07:47:51;22.20;51.50
8965;DHT22;4517;49.020;12.066;2022-08-11T07:50:40;22.20;51.00
8965;DHT22;4517;49.020;12.066;2022-08-11T07:53:26;22.10;51.00
8965;DHT22;4517;49.020;12.066;2022-08-11T07:55:55;22.10;50.40
8965;DHT22;4517;49.020;12.066;2022-08-11T07:58:22;22.30;49.70
8965;DHT22;4517;49.020;12.066;2022-08-11T08:01:06;22.30;49.90
8965;DHT22;4517;49.020;12.066;2022-08-11T08:03:51;22.40;50.30
8965;DHT22;4517;49.020;12.066;2022-08-11T08:06:36;22.60;50.30
8965;DHT22;4517;49.020;12.066;2022-08-11T08:09:21;22.70;50.10
8965;DHT22;4517;49.020;12.066;2022-08-11T08:12:07;22.80;50.30
8965;DHT22;4517;49.020;12.066;2022-08-11T08:14:54;22.90;49.90
8965;DHT22;4517;49.020;12.066;2022-08-11T08:17:40;23.00;49.00
8965;DHT22;4517;49.020;12.066;2022-08-11T08:20:28;22.90;48.80
8965;DHT22;4517;49.020;12.066;2022-08-11T08:23:00;23.10;49.10
8965;DHT22;4517;49.020;12.066;2022-08-11T08:25:31;23.10;49.00
8965;DHT22;4517;49.020;12.066;2022-08-11T08:28:01;23.10;48.20
8965;DHT22;4517;49.020;12.066;2022-08-11T08:30:28;23.10;48.10
8965;DHT22;4517;49.020;12.066;2022-08-11T08:33:17;23.20;48.30
8965;DHT22;4517;49.020;12.066;2022-08-11T08:35:44;23.20;48.20
8965;DHT22;4517;49.020;12.066;2022-08-11T08:38:10;23.10;48.80
8965;DHT22;4517;49.020;12.066;2022-08-11T08:40:39;23.10;48.40
8965;DHT22;4517;49.020;12.066;2022-08-11T08:43:08;23.20;48.00
8965;DHT22;4517;49.020;12.066;2022-08-11T08:45:36;23.30;48.40
8965;DHT22;4517;49.020;12.066;2022-08-11T08:48:09;23.30;48.30
8965;DHT22;4517;49.020;12.066;2022-08-11T08:50:42;23.40;48.00
8965;DHT22;4517;49.020;12.066;2022-08-11T08:53:29;23.50;47.60
8965;DHT22;4517;49.020;12.066;2022-08-11T08:55:59;23.50;47.60
8965;DHT22;4517;49.020;12.066;2022-08-11T08:58:25;23.70;47.70
8965;DHT22;4517;49.020;12.066;2022-08-11T09:00:53;23.70;46.90
8965;DHT22;4517;49.020;12.066;2022-08-11T09:03:19;23.60;46.60
8965;DHT22;4517;49.020;12.066;2022-08-11T09:05:47;23.70;46.80
8965;DHT22;4517;49.020;12.066;2022-08-11T09:08:16;23.70;47.10
8965;DHT22;4517;49.020;12.066;2022-08-11T09:10:42;23.60;47.00
8965;DHT22;4517;49.020;12.066;2022-08-11T09:13:08;23.60;46.60
8965;DHT22;4517;49.020;12.066;2022-08-11T09:15:34;23.70;46.60
8965;DHT22;4517;49.020;12.066;2022-08-11T09:18:02;23.80;46.80
8965;DHT22;4517;49.020;12.066;2022-08-11T09:20:33;23.90;46.90
8965;DHT22;4517;49.020;12.066;2022-08-11T09:23:02;24.10;47.00
8965;DHT22;4517;49.020;12.066;2022-08-11T09:25:50;24.20;46.80
8965;DHT22;4517;49.020;12.066;2022-08-11T09:28:35;24.10;46.40
8965;DHT22;4517;49.020;12.066;2022-08-11T09:31:01;24.00;46.20
8965;DHT22;4517;49.020;12.066;2022-08-11T09:33:28;24.00;46.10
8965;DHT22;4517;49.020;12.066;2022-08-11T09:35:55;24.10;46.80
8965;DHT22;4517;49.020;12.066;2022-08-11T09:38:23;24.10;46.70
8965;DHT22;4517;49.020;12.066;2022-08-11T09:41:10;24.20;47.10
8965;DHT22;4517;49.020;12.066;2022-08-11T09:43:42;24.30;47.90
8965;DHT22;4517;49.020;12.066;2022-08-11T09:46:27;24.30;47.60
8965;DHT22;4517;49.020;12.066;2022-08-11T09:48:56;24.50;47.20
8965;DHT22;4517;49.020;12.066;2022-08-11T09:51:24;24.30;47.00
8965;DHT22;4517;49.020;12.066;2022-08-11T09:53:50;24.40;47.80
8965;DHT22;4517;49.020;12.066;2022-08-11T09:56:19;24.60;46.40
8965;DHT22;4517;49.020;12.066;2022-08-11T09:59:04;24.60;47.00
8965;DHT22;4517;49.020;12.066;2022-08-11T10:01:38;24.60;47.20
8965;DHT22;4517;49.020;12.066;2022-08-11T10:06:38;24.60;47.50
8965;DHT22;4517;49.020;12.066;2022-08-11T10:09:23;24.80;47.80
8965;DHT22;4517;49.020;12.066;2022-08-11T10:11:55;25.00;47.20
8965;DHT22;4517;49.020;12.066;2022-08-11T10:14:22;25.00;47.50
8965;DHT22;4517;49.020;12.066;2022-08-11T10:17:08;24.80;47.20
8965;DHT22;4517;49.020;12.066;2022-08-11T10:19:35;24.90;47.70
8965;DHT22;4517;49.020;12.066;2022-08-11T10:22:04;25.10;47.10
8965;DHT22;4517;49.020;12.066;2022-08-11T10:24:50;25.30;46.60
8965;DHT22;4517;49.020;12.066;2022-08-11T10:27:35;25.30;46.40
8965;DHT22;4517;49.020;12.066;2022-08-11T10:30:01;25.30;46.50
8965;DHT22;4517;49.020;12.066;2022-08-11T10:32:46;25.40;46.50
8965;DHT22;4517;49.020;12.066;2022-08-11T10:35:33;25.50;46.40
8965;DHT22;4517;49.020;12.066;2022-08-11T10:37:59;25.60;45.90
8965;DHT22;4517;49.020;12.066;2022-08-11T10:40:25;25.50;46.60
8965;DHT22;4517;49.020;12.066;2022-08-11T10:42:54;25.40;45.60
8965;DHT22;4517;49.020;12.066;2022-08-11T10:45:32;25.30;46.10
8965;DHT22;4517;49.020;12.066;2022-08-11T10:48:19;25.50;47.30
8965;DHT22;4517;49.020;12.066;2022-08-11T10:50:46;25.60;45.70
8965;DHT22;4517;49.020;12.066;2022-08-11T10:53:32;25.60;45.80
8965;DHT22;4517;49.020;12.066;2022-08-11T10:56:17;25.60;45.60
8965;DHT22;4517;49.020;12.066;2022-08-11T10:59:02;25.40;45.80
8965;DHT22;4517;49.020;12.066;2022-08-11T11:01:32;25.30;46.10
8965;DHT22;4517;49.020;12.066;2022-08-11T11:04:04;25.60;46.30
8965;DHT22;4517;49.020;12.066;2022-08-11T11:09:16;25.90;44.70
8965;DHT22;4517;49.020;12.066;2022-08-11T11:11:50;25.90;45.90
8965;DHT22;4517;49.020;12.066;2022-08-11T11:14:39;26.20;45.70
8965;DHT22;4517;49.020;12.066;2022-08-11T11:17:29;26.30;45.40
8965;DHT22;4517;49.020;12.066;2022-08-11T11:20:19;26.40;45.50
8965;DHT22;4517;49.020;12.066;2022-08-11T11:22:52;26.50;44.30
8965;DHT22;4517;49.020;12.066;2022-08-11T11:28:50;26.00;44.00
8965;DHT22;4517;49.020;12.066;2022-08-11T11:31:47;26.00;43.70
8965;DHT22;4517;49.020;12.066;2022-08-11T11:34:42;26.00;43.70
8965;DHT22;4517;49.020;12.066;2022-08-11T11:37:10;25.90;43.50
8965;DHT22;4517;49.020;12.066;2022-08-11T11:39:37;25.90;43.20
8965;DHT22;4517;49.020;12.066;2022-08-11T11:42:06;26.00;42.90
8965;DHT22;4517;49.020;12.066;2022-08-11T11:44:33;26.10;43.30
8965;DHT22;4517;49.020;12.066;2022-08-11T11:47:01;26.30;43.10
8965;DHT22;4517;49.020;12.066;2022-08-11T11:49:28;26.40;43.60
8965;DHT22;4517;49.020;12.066;2022-08-11T11:51:56;26.60;42.90
8965;DHT22;4517;49.020;12.066;2022-08-11T11:54:29;26.50;42.30
8965;DHT22;4517;49.020;12.066;2022-08-11T11:56:56;26.60;42.70
8965;DHT22;4517;49.020;12.066;2022-08-11T11:59:24;26.60;42.00
8965;DHT22;4517;49.020;12.066;2022-08-11T12:02:12;26.40;42.50
8965;DHT22;4517;49.020;12.066;2022-08-11T12:04:43;26.30;42.30
8965;DHT22;4517;49.020;12.066;2022-08-11T12:07:10;26.40;42.70
8965;DHT22;4517;49.020;12.066;2022-08-11T12:09:56;26.60;42.30
8965;DHT22;4517;49.020;12.066;2022-08-11T12:12:22;26.90;42.00
8965;DHT22;4517;49.020;12.066;2022-08-11T12:15:08;26.80;41.90
8965;DHT22;4517;49.020;12.066;2022-08-11T12:17:35;26.60;41.80
8965;DHT22;4517;49.020;12.066;2022-08-11T12:20:03;26.70;41.80
8965;DHT22;4517;49.020;12.066;2022-08-11T12:22:29;26.90;41.40
8965;DHT22;4517;49.020;12.066;2022-08-11T12:25:14;26.80;41.50
8965;DHT22;4517;49.020;12.066;2022-08-11T12:27:59;27.00;41.80
8965;DHT22;4517;49.020;12.066;2022-08-11T12:30:25;27.30;41.10
8965;DHT22;4517;49.020;12.066;2022-08-11T12:32:51;27.00;41.00
8965;DHT22;4517;49.020;12.066;2022-08-11T12:35:17;27.10;41.10
8965;DHT22;4517;49.020;12.066;2022-08-11T12:37:48;27.50;41.10
8965;DHT22;4517;49.020;12.066;2022-08-11T12:40:18;27.50;40.50
8965;DHT22;4517;49.020;12.066;2022-08-11T12:43:08;27.40;40.30
8965;DHT22;4517;49.020;12.066;2022-08-11T12:46:10;27.30;40.70
8965;DHT22;4517;49.020;12.066;2022-08-11T12:48:43;27.50;40.80
8965;DHT22;4517;49.020;12.066;2022-08-11T12:51:31;27.60;40.80
8965;DHT22;4517;49.020;12.066;2022-08-11T12:54:44;27.70;40.90
8965;DHT22;4517;49.020;12.066;2022-08-11T12:57:13;27.80;40.60
8965;DHT22;4517;49.020;12.066;2022-08-11T12:59:59;27.80;40.20
8965;DHT22;4517;49.020;12.066;2022-08-11T13:02:46;27.50;40.00
8965;DHT22;4517;49.020;12.066;2022-08-11T13:05:31;27.50;40.00
8965;DHT22;4517;49.020;12.066;2022-08-11T13:07:59;27.30;39.90
8965;DHT22;4517;49.020;12.066;2022-08-11T13:10:26;27.40;40.50
8965;DHT22;4517;49.020;12.066;2022-08-11T13:13:12;27.40;40.30
8965;DHT22;4517;49.020;12.066;2022-08-11T13:15:39;27.50;40.30
8965;DHT22;4517;49.020;12.066;2022-08-11T13:18:05;27.80;40.30
8965;DHT22;4517;49.020;12.066;2022-08-11T13:20:34;28.10;39.60
8965;DHT22;4517;49.020;12.066;2022-08-11T13:23:01;28.10;39.80
8965;DHT22;4517;49.020;12.066;2022-08-11T13:25:30;28.30;39.50
8965;DHT22;4517;49.020;12.066;2022-08-11T13:27:58;28.00;39.50
8965;DHT22;4517;49.020;12.066;2022-08-11T13:30:27;27.50;39.10
8965;DHT22;4517;49.020;12.066;2022-08-11T13:33:12;27.50;39.60
8965;DHT22;4517;49.020;12.066;2022-08-11T13:35:40;27.60;39.50
8965;DHT22;4517;49.020;12.066;2022-08-11T13:38:07;27.40;39.30
8965;DHT22;4517;49.020;12.066;2022-08-11T13:40:38;27.50;39.80
8965;DHT22;4517;49.020;12.066;2022-08-11T13:43:05;27.70;39.40
8965;DHT22;4517;49.020;12.066;2022-08-11T13:45:32;27.80;39.60
8965;DHT22;4517;49.020;12.066;2022-08-11T13:47:58;27.60;39.80
8965;DHT22;4517;49.020;12.066;2022-08-11T13:50:25;27.50;39.40
8965;DHT22;4517;49.020;12.066;2022-08-11T13:53:12;27.40;39.60
8965;DHT22;4517;49.020;12.066;2022-08-11T13:55:40;27.40;39.60
8965;DHT22;4517;49.020;12.066;2022-08-11T13:58:09;27.40;39.70
8965;DHT22;4517;49.020;12.066;2022-08-11T14:00:36;27.30;39.60
8965;DHT22;4517;49.020;12.066;2022-08-11T14:03:07;27.20;39.40
8965;DHT22;4517;49.020;12.066;2022-08-11T14:05:47;27.20;39.60
8965;DHT22;4517;49.020;12.066;2022-08-11T14:08:19;27.20;39.30
8965;DHT22;4517;49.020;12.066;2022-08-11T14:10:48;27.20;39.10
8965;DHT22;4517;49.020;12.066;2022-08-11T14:13:40;27.30;39.60
8965;DHT22;4517;49.020;12.066;2022-08-11T14:16:11;27.50;38.80
8965;DHT22;4517;49.020;12.066;2022-08-11T14:18:44;27.10;38.20
8965;DHT22;4517;49.020;12.066;2022-08-11T14:21:13;27.10;38.70
8965;DHT22;4517;49.020;12.066;2022-08-11T14:23:59;27.00;38.30
8965;DHT22;4517;49.020;12.066;2022-08-11T14:26:26;27.00;38.50
8965;DHT22;4517;49.020;12.066;2022-08-11T14:31:23;27.20;38.90
8965;DHT22;4517;49.020;12.066;2022-08-11T14:33:55;27.00;37.80
8965;DHT22;4517;49.020;12.066;2022-08-11T14:36:23;27.10;37.60
8965;DHT22;4517;49.020;12.066;2022-08-11T14:38:50;27.20;38.50
8965;DHT22;4517;49.020;12.066;2022-08-11T14:41:18;27.30;38.80
8965;DHT22;4517;49.020;12.066;2022-08-11T14:44:04;27.30;39.00
8965;DHT22;4517;49.020;12.066;2022-08-11T14:46:50;27.50;38.70
8965;DHT22;4517;49.020;12.066;2022-08-11T14:49:37;27.20;38.70
8965;DHT22;4517;49.020;12.066;2022-08-11T14:52:06;27.30;38.50
8965;DHT22;4517;49.020;12.066;2022-08-11T14:54:33;27.20;38.90
8965;DHT22;4517;49.020;12.066;2022-08-11T14:57:19;27.50;39.00
8965;DHT22;4517;49.020;12.066;2022-08-11T14:59:47;27.60;39.20
8965;DHT22;4517;49.020;12.066;2022-08-11T15:02:14;27.70;39.40
8965;DHT22;4517;49.020;12.066;2022-08-11T15:05:00;27.70;39.40
8965;DHT22;4517;49.020;12.066;2022-08-11T15:07:27;27.50;39.40
8965;DHT22;4517;49.020;12.066;2022-08-11T15:09:58;27.20;39.50
8965;DHT22;4517;49.020;12.066;2022-08-11T15:12:24;27.20;39.90
8965;DHT22;4517;49.020;12.066;2022-08-11T15:14:51;27.20;39.80
8965;DHT22;4517;49.020;12.066;2022-08-11T15:17:37;27.10;39.50
8965;DHT22;4517;49.020;12.066;2022-08-11T15:20:09;27.00;39.80
8965;DHT22;4517;49.020;12.066;2022-08-11T15:22:53;26.90;39.80
8965;DHT22;4517;49.020;12.066;2022-08-11T15:25:40;27.00;39.80
8965;DHT22;4517;49.020;12.066;2022-08-11T15:28:08;27.00;39.70
8965;DHT22;4517;49.020;12.066;2022-08-11T15:30:55;27.00;39.90
8965;DHT22;4517;49.020;12.066;2022-08-11T15:33:42;26.80;40.50
8965;DHT22;4517;49.020;12.066;2022-08-11T15:36:29;26.70;40.10
8965;DHT22;4517;49.020;12.066;2022-08-11T15:39:34;26.60;39.90
8965;DHT22;4517;49.020;12.066;2022-08-11T15:42:03;26.60;39.80
8965;DHT22;4517;49.020;12.066;2022-08-11T15:44:55;26.50;39.80
8965;DHT22;4517;49.020;12.066;2022-08-11T15:47:43;26.50;39.60
8965;DHT22;4517;49.020;12.066;2022-08-11T15:50:15;26.50;39.60
8965;DHT22;4517;49.020;12.066;2022-08-11T15:52:46;26.60;39.90
8965;DHT22;4517;49.020;12.066;2022-08-11T15:55:15;26.70;39.50
8965;DHT22;4517;49.020;12.066;2022-08-11T15:57:42;26.60;39.60
8965;DHT22;4517;49.020;12.066;2022-08-11T16:00:28;26.50;39.60
8965;DHT22;4517;49.020;12.066;2022-08-11T16:03:12;26.50;39.50
8965;DHT22;4517;49.020;12.066;2022-08-11T16:05:58;26.50;39.90
8965;DHT22;4517;49.020;12.066;2022-08-11T16:08:24;26.50;40.20
8965;DHT22;4517;49.020;12.066;2022-08-11T16:10:53;26.60;40.00
8965;DHT22;4517;49.020;12.066;2022-08-11T16:13:21;26.50;40.40
8965;DHT22;4517;49.020;12.066;2022-08-11T16:15:55;26.50;40.50
8965;DHT22;4517;49.020;12.066;2022-08-11T16:18:53;26.30;40.40
8965;DHT22;4517;49.020;12.066;2022-08-11T16:21:26;26.30;40.30
8965;DHT22;4517;49.020;12.066;2022-08-11T16:23:54;26.30;40.60
8965;DHT22;4517;49.020;12.066;2022-08-11T16:26:22;26.40;40.70
8965;DHT22;4517;49.020;12.066;2022-08-11T16:28:57;26.50;40.70
8965;DHT22;4517;49.020;12.066;2022-08-11T16:31:25;26.50;40.80
8965;DHT22;4517;49.020;12.066;2022-08-11T16:33:53;26.60;40.50
8965;DHT22;4517;49.020;12.066;2022-08-11T16:36:21;26.60;40.70
8965;DHT22;4517;49.020;12.066;2022-08-11T16:39:07;26.70;39.70
8965;DHT22;4517;49.020;12.066;2022-08-11T16:41:35;27.40;39.60
8965;DHT22;4517;49.020;12.066;2022-08-11T16:44:40;27.90;38.70
8965;DHT22;4517;49.020;12.066;2022-08-11T16:47:24;28.00;38.90
8965;DHT22;4517;49.020;12.066;2022-08-11T16:49:52;28.70;38.50
8965;DHT22;4517;49.020;12.066;2022-08-11T16:52:19;28.60;38.50
8965;DHT22;4517;49.020;12.066;2022-08-11T16:54:45;28.80;38.40
8965;DHT22;4517;49.020;12.066;2022-08-11T16:57:16;28.50;38.30
8965;DHT22;4517;49.020;12.066;2022-08-11T17:00:05;29.00;38.40
8965;DHT22;4517;49.020;12.066;2022-08-11T17:02:34;29.20;38.30
8965;DHT22;4517;49.020;12.066;2022-08-11T17:05:22;29.30;38.40
8965;DHT22;4517;49.020;12.066;2022-08-11T17:08:08;29.20;38.60
8965;DHT22;4517;49.020;12.066;2022-08-11T17:10:57;28.70;38.80
8965;DHT22;4517;49.020;12.066;2022-08-11T17:13:49;28.60;38.50
8965;DHT22;4517;49.020;12.066;2022-08-11T17:16:23;28.60;38.70
8965;DHT22;4517;49.020;12.066;2022-08-11T17:19:00;28.80;38.60
8965;DHT22;4517;49.020;12.066;2022-08-11T17:21:50;28.60;38.90
8965;DHT22;4517;49.020;12.066;2022-08-11T17:24:39;28.80;38.70
8965;DHT22;4517;49.020;12.066;2022-08-11T17:27:07;28.30;39.50
8965;DHT22;4517;49.020;12.066;2022-08-11T17:29:40;28.20;39.80
8965;DHT22;4517;49.020;12.066;2022-08-11T17:32:10;28.10;40.20
8965;DHT22;4517;49.020;12.066;2022-08-11T17:34:58;28.00;40.40
8965;DHT22;4517;49.020;12.066;2022-08-11T17:37:43;27.50;40.80
8965;DHT22;4517;49.020;12.066;2022-08-11T17:40:13;27.80;40.80
8965;DHT22;4517;49.020;12.066;2022-08-11T17:42:42;27.30;40.90
8965;DHT22;4517;49.020;12.066;2022-08-11T17:45:26;27.00;41.20
8965;DHT22;4517;49.020;12.066;2022-08-11T17:48:35;27.10;41.20
8965;DHT22;4517;49.020;12.066;2022-08-11T17:51:07;27.00;41.10
8965;DHT22;4517;49.020;12.066;2022-08-11T17:53:40;26.70;41.20
8965;DHT22;4517;49.020;12.066;2022-08-11T17:56:30;26.80;41.30
8965;DHT22;4517;49.020;12.066;2022-08-11T17:59:16;26.50;41.30
8965;DHT22;4517;49.020;12.066;2022-08-11T18:02:21;26.20;41.60
8965;DHT22;4517;49.020;12.066;2022-08-11T18:05:07;26.00;41.60
8965;DHT22;4517;49.020;12.066;2022-08-11T18:07:33;25.80;41.70
8965;DHT22;4517;49.020;12.066;2022-08-11T18:10:19;25.70;41.80
8965;DHT22;4517;49.020;12.066;2022-08-11T18:13:04;25.50;41.80
8965;DHT22;4517;49.020;12.066;2022-08-11T18:15:49;25.30;42.00
8965;DHT22;4517;49.020;12.066;2022-08-11T18:18:34;24.90;42.30
8965;DHT22;4517;49.020;12.066;2022-08-11T18:21:20;24.40;42.60
8965;DHT22;4517;49.020;12.066;2022-08-11T18:24:11;24.10;42.90
8965;DHT22;4517;49.020;12.066;2022-08-11T18:26:57;23.90;43.10
8965;DHT22;4517;49.020;12.066;2022-08-11T18:29:44;23.60;43.30
8965;DHT22;4517;49.020;12.066;2022-08-11T18:32:33;23.50;43.40
8965;DHT22;4517;49.020;12.066;2022-08-11T18:35:19;23.40;43.60
8965;DHT22;4517;49.020;12.066;2022-08-11T18:38:05;23.30;43.80
8965;DHT22;4517;49.020;12.066;2022-08-11T18:40:52;23.20;44.00
8965;DHT22;4517;49.020;12.066;2022-08-11T18:43:40;23.00;44.10
8965;DHT22;4517;49.020;12.066;2022-08-11T18:46:26;22.90;44.30
8965;DHT22;4517;49.020;12.066;2022-08-11T18:49:16;22.80;44.50
8965;DHT22;4517;49.020;12.066;2022-08-11T18:52:02;22.60;44.60
8965;DHT22;4517;49.020;12.066;2022-08-11T18:54:49;22.40;44.80
8965;DHT22;4517;49.020;12.066;2022-08-11T18:57:35;22.40;45.00
8965;DHT22;4517;49.020;12.066;2022-08-11T19:00:22;22.50;45.00
8965;DHT22;4517;49.020;12.066;2022-08-11T19:03:10;22.40;45.20
8965;DHT22;4517;49.020;12.066;2022-08-11T19:06:00;22.20;45.40
8965;DHT22;4517;49.020;12.066;2022-08-11T19:08:52;22.10;45.60
8965;DHT22;4517;49.020;12.066;2022-08-11T19:11:38;22.20;45.70
8965;DHT22;4517;49.020;12.066;2022-08-11T19:14:24;22.20;45.70
8965;DHT22;4517;49.020;12.066;2022-08-11T19:17:10;22.10;45.80
8965;DHT22;4517;49.020;12.066;2022-08-11T19:19:56;22.10;45.90
8965;DHT22;4517;49.020;12.066;2022-08-11T19:22:42;21.90;46.00
8965;DHT22;4517;49.020;12.066;2022-08-11T19:25:26;21.80;46.10
8965;DHT22;4517;49.020;12.066;2022-08-11T19:28:14;21.80;46.10
8965;DHT22;4517;49.020;12.066;2022-08-11T19:30:59;21.50;46.30
8965;DHT22;4517;49.020;12.066;2022-08-11T19:33:44;21.50;46.30
8965;DHT22;4517;49.020;12.066;2022-08-11T19:36:30;21.70;46.30
8965;DHT22;4517;49.020;12.066;2022-08-11T19:39:15;21.50;46.20